createdAt,value
2018-03-16T00:00:44.463Z,1.44
2018-03-16T00:03:13.663Z,1.42
2018-03-16T00:05:42.095Z,1.37
2018-03-16T00:08:10.651Z,1.42
2018-03-16T00:10:41.039Z,1.41
2018-03-16T00:13:09.531Z,1.37
2018-03-16T00:15:39.322Z,1.42
2018-03-16T00:18:08.008Z,1.34
2018-03-16T00:20:36.963Z,1.29
2018-03-16T00:23:05.393Z,1.27
2018-03-16T00:25:33.861Z,1.29
2018-03-16T00:28:02.397Z,1.23
2018-03-16T00:30:30.845Z,1.36
2018-03-16T00:32:59.331Z,1.33
2018-03-16T00:35:29.440Z,1.30
2018-03-16T00:37:57.913Z,1.30
2018-03-16T00:40:26.500Z,1.20
2018-03-16T00:42:55.695Z,1.21
2018-03-16T00:45:24.140Z,1.16
2018-03-16T00:47:52.668Z,1.20
2018-03-16T00:50:21.251Z,1.19
2018-03-16T00:52:51.520Z,1.09
2018-03-16T00:55:20.050Z,1.11
2018-03-16T00:57:48.636Z,1.08
2018-03-16T01:00:19.262Z,1.05
2018-03-16T01:02:47.845Z,1.05
2018-03-16T01:05:17.434Z,1.03
2018-03-16T01:07:45.958Z,1.01
2018-03-16T01:10:16.158Z,0.99
2018-03-16T01:12:44.745Z,1.00
2018-03-16T01:15:14.253Z,0.97
2018-03-16T01:17:44.161Z,0.97
2018-03-16T01:20:13.057Z,1.00
2018-03-16T01:22:41.528Z,0.96
2018-03-16T01:25:10.979Z,0.94
2018-03-16T01:27:39.439Z,0.97
2018-03-16T01:30:07.866Z,0.99
2018-03-16T01:32:36.653Z,0.97
2018-03-16T01:35:05.418Z,0.95
2018-03-16T01:37:33.877Z,0.91
2018-03-16T01:40:03.090Z,0.94
2018-03-16T01:42:32.094Z,0.95
2018-03-16T01:45:00.564Z,0.93
2018-03-16T01:47:30.264Z,0.94
2018-03-16T01:49:59.433Z,0.93
2018-03-16T01:52:27.951Z,0.92
2018-03-16T01:54:56.708Z,0.96
2018-03-16T01:57:25.196Z,0.97
2018-03-16T01:59:53.767Z,0.99
2018-03-16T02:02:22.753Z,0.94
2018-03-16T02:04:55.621Z,0.94
2018-03-16T02:07:24.158Z,0.91
2018-03-16T02:09:52.682Z,0.92
2018-03-16T02:12:23.202Z,0.92
2018-03-16T02:14:52.591Z,0.94
2018-03-16T02:17:21.117Z,0.90
2018-03-16T02:19:49.622Z,0.86
2018-03-16T02:22:18.601Z,0.89
2018-03-16T02:24:47.087Z,0.89
2018-03-16T02:27:15.618Z,0.95
2018-03-16T02:29:44.254Z,0.85
2018-03-16T02:32:12.736Z,0.91
2018-03-16T02:34:43.060Z,0.82
2018-03-16T02:37:12.521Z,0.97
2018-03-16T02:39:40.987Z,0.94
2018-03-16T02:42:09.424Z,0.91
2018-03-16T02:44:39.966Z,0.91
2018-03-16T02:47:09.285Z,0.89
2018-03-16T02:49:44.419Z,0.85
2018-03-16T02:52:18.610Z,0.90
2018-03-16T02:54:49.620Z,0.86
2018-03-16T02:57:19.862Z,0.93
2018-03-16T02:59:48.338Z,0.92
2018-03-16T03:02:16.935Z,0.96
2018-03-16T03:04:45.478Z,0.92
2018-03-16T03:07:15.091Z,0.96
2018-03-16T03:09:44.192Z,0.95
2018-03-16T03:12:13.532Z,0.97
2018-03-16T03:14:42.414Z,0.93
2018-03-16T03:17:11.250Z,0.92
2018-03-16T03:19:41.248Z,0.97
2018-03-16T03:22:09.721Z,0.94
2018-03-16T03:24:39.024Z,1.05
2018-03-16T03:27:07.440Z,1.00
2018-03-16T03:29:35.956Z,1.03
2018-03-16T03:32:05.841Z,1.01
2018-03-16T03:34:34.352Z,1.04
2018-03-16T03:37:02.787Z,0.98
2018-03-16T03:39:32.173Z,1.08
2018-03-16T03:42:01.359Z,1.08
2018-03-16T03:44:29.787Z,1.07
2018-03-16T03:46:59.672Z,1.07
2018-03-16T03:49:28.205Z,1.01
2018-03-16T03:51:56.679Z,1.03
2018-03-16T03:54:26.112Z,0.92
2018-03-16T03:56:54.694Z,1.06
2018-03-16T03:59:23.388Z,1.08
2018-03-16T04:01:55.234Z,1.13
2018-03-16T04:04:23.928Z,1.11
2018-03-16T04:06:52.452Z,1.05
2018-03-16T04:09:21.018Z,1.04
2018-03-16T04:11:49.517Z,0.99
2018-03-16T04:14:18.129Z,1.00
2018-03-16T04:16:46.711Z,1.06
2018-03-16T04:19:15.206Z,1.04
2018-03-16T04:21:44.540Z,1.02
2018-03-16T04:24:13.130Z,1.07
2018-03-16T04:26:41.668Z,1.07
2018-03-16T04:29:10.150Z,1.09
2018-03-16T04:31:39.351Z,1.09
2018-03-16T04:34:07.830Z,1.10
2018-03-16T04:36:37.072Z,1.07
2018-03-16T04:39:07.397Z,1.09
2018-03-16T04:41:35.854Z,1.09
2018-03-16T04:44:05.133Z,1.10
2018-03-16T04:46:34.034Z,1.07
2018-03-16T04:49:02.507Z,1.06
2018-03-16T04:51:30.984Z,1.06
2018-03-16T04:54:00.646Z,1.07
2018-03-16T04:56:29.677Z,1.05
2018-03-16T04:58:58.166Z,1.03
2018-03-16T05:01:27.107Z,1.06
2018-03-16T05:03:55.587Z,1.03
2018-03-16T05:06:24.047Z,1.05
2018-03-16T05:08:53.690Z,1.04
2018-03-16T05:11:23.166Z,1.03
2018-03-16T05:13:51.757Z,1.07
2018-03-16T05:16:21.954Z,1.04
2018-03-16T05:18:50.551Z,1.08
2018-03-16T05:21:19.104Z,1.04
2018-03-16T05:23:47.604Z,0.97
2018-03-16T05:26:16.223Z,1.06
2018-03-16T05:28:44.732Z,1.05
2018-03-16T05:31:13.911Z,1.05
2018-03-16T05:33:42.550Z,1.11
2018-03-16T05:36:11.019Z,1.24
2018-03-16T05:38:40.472Z,1.11
2018-03-16T05:41:08.887Z,1.11
2018-03-16T05:43:37.313Z,1.07
2018-03-16T05:46:06.181Z,1.00
2018-03-16T05:48:34.676Z,1.10
2018-03-16T05:51:03.211Z,1.19
2018-03-16T05:53:31.801Z,1.16
2018-03-16T05:56:00.220Z,1.21
2018-03-16T05:58:29.063Z,1.17
2018-03-16T06:00:58.011Z,1.23
2018-03-16T06:03:26.455Z,1.17
2018-03-16T06:05:55.474Z,1.13
2018-03-16T06:08:24.020Z,1.10
2018-03-16T06:10:52.499Z,1.12
2018-03-16T06:13:22.491Z,1.13
2018-03-16T06:15:51.853Z,1.21
2018-03-16T06:18:20.905Z,1.16
2018-03-16T06:20:49.923Z,1.20
2018-03-16T06:23:18.501Z,1.19
2018-03-16T06:25:47.193Z,1.17
2018-03-16T06:28:16.949Z,1.17
2018-03-16T06:30:45.772Z,1.21
2018-03-16T06:33:14.316Z,1.19
2018-03-16T06:35:42.816Z,1.15
2018-03-16T06:38:11.299Z,1.22
2018-03-16T06:40:39.777Z,1.20
2018-03-16T06:43:08.306Z,1.19
2018-03-16T06:45:36.909Z,1.21
2018-03-16T06:48:05.361Z,1.20
2018-03-16T06:50:34.004Z,1.15
2018-03-16T06:53:02.542Z,1.15
2018-03-16T06:55:31.119Z,1.21
2018-03-16T06:57:59.586Z,1.18
2018-03-16T07:00:29.599Z,1.18
2018-03-16T07:02:58.145Z,1.14
2018-03-16T07:05:26.698Z,1.14
2018-03-16T07:07:55.202Z,1.24
2018-03-16T07:10:24.782Z,1.26
2018-03-16T07:12:53.239Z,1.24
2018-03-16T07:15:33.444Z,1.30
2018-03-16T07:18:01.966Z,1.26
2018-03-16T07:20:30.341Z,1.23
2018-03-16T07:23:00.635Z,1.26
2018-03-16T07:25:29.102Z,1.28
2018-03-16T07:27:57.547Z,1.21
2018-03-16T07:30:26.117Z,1.25
2018-03-16T07:32:56.196Z,1.23
2018-03-16T07:35:24.607Z,1.28
2018-03-16T07:37:53.929Z,1.31
2018-03-16T07:40:22.452Z,1.38
2018-03-16T07:42:51.260Z,1.31
2018-03-16T07:45:25.413Z,1.38
2018-03-16T07:47:53.911Z,1.34
2018-03-16T07:50:22.401Z,1.28
2018-03-16T07:52:51.270Z,1.37
2018-03-16T07:55:19.705Z,1.46
2018-03-16T07:57:49.084Z,1.52
2018-03-16T08:00:18.278Z,1.39
2018-03-16T08:02:46.838Z,1.41
2018-03-16T08:05:15.262Z,1.42
2018-03-16T08:07:44.823Z,1.39
2018-03-16T08:10:13.352Z,1.33
2018-03-16T08:12:41.800Z,1.40
2018-03-16T08:15:11.236Z,1.32
2018-03-16T08:17:39.833Z,1.39
2018-03-16T08:20:08.272Z,1.43
2018-03-16T08:22:37.157Z,1.45
2018-03-16T08:25:05.922Z,1.51
2018-03-16T08:27:34.379Z,1.43
2018-03-16T08:30:02.970Z,1.53
2018-03-16T08:32:31.421Z,1.43
2018-03-16T08:34:59.843Z,1.36
2018-03-16T08:37:28.366Z,1.46
2018-03-16T08:39:56.806Z,1.48
2018-03-16T08:42:25.288Z,1.58
2018-03-16T08:44:54.102Z,1.58
2018-03-16T08:47:22.577Z,1.52
2018-03-16T08:49:52.900Z,1.56
2018-03-16T08:52:21.405Z,1.58
2018-03-16T08:54:49.859Z,1.56
2018-03-16T08:57:18.465Z,1.66
2018-03-16T08:59:47.174Z,1.86
2018-03-16T09:02:15.652Z,1.83
2018-03-16T09:04:44.105Z,1.86
2018-03-16T09:07:12.567Z,1.75
2018-03-16T09:09:41.095Z,1.76
2018-03-16T09:12:09.533Z,1.77
2018-03-16T09:14:39.446Z,1.80
2018-03-16T09:17:07.929Z,1.89
2018-03-16T09:19:36.380Z,2.02
2018-03-16T09:22:06.946Z,1.97
2018-03-16T09:24:36.231Z,1.88
2018-03-16T09:27:04.690Z,1.62
2018-03-16T09:29:33.290Z,1.61
2018-03-16T09:32:01.759Z,1.80
2018-03-16T09:34:30.184Z,1.63
2018-03-16T09:36:59.040Z,1.52
2018-03-16T09:39:27.473Z,1.59
2018-03-16T09:41:56.208Z,1.53
2018-03-16T09:44:26.248Z,1.42
2018-03-16T09:46:54.805Z,1.45
2018-03-16T09:49:25.135Z,1.73
2018-03-16T09:51:53.646Z,1.55
2018-03-16T09:54:22.194Z,1.56
2018-03-16T09:56:50.782Z,1.58
2018-03-16T09:59:19.999Z,1.46
2018-03-16T10:01:48.768Z,1.50
2018-03-16T10:04:17.301Z,1.63
2018-03-16T10:06:47.576Z,1.58
2018-03-16T10:09:16.262Z,1.43
2018-03-16T10:11:44.851Z,1.32
2018-03-16T10:14:13.534Z,1.29
2018-03-16T10:16:42.065Z,1.30
2018-03-16T10:19:10.623Z,1.33
2018-03-16T10:21:39.542Z,1.19
2018-03-16T10:24:08.022Z,1.21
2018-03-16T10:26:36.483Z,1.30
2018-03-16T10:29:05.625Z,1.30
2018-03-16T10:31:34.082Z,1.25
2018-03-16T10:34:02.527Z,1.08
2018-03-16T10:36:31.293Z,1.22
2018-03-16T10:38:59.854Z,1.08
2018-03-16T10:41:28.335Z,1.15
2018-03-16T10:43:56.851Z,1.25
2018-03-16T10:46:25.399Z,1.40
2018-03-16T10:48:54.013Z,1.59
2018-03-16T10:51:22.777Z,1.48
2018-03-16T10:53:51.236Z,1.66
2018-03-16T10:56:19.758Z,1.79
2018-03-16T10:58:49.070Z,1.51
2018-03-16T11:01:19.369Z,1.47
2018-03-16T11:03:51.499Z,1.28
2018-03-16T11:06:25.664Z,1.35
2018-03-16T11:08:54.928Z,1.40
2018-03-16T11:11:23.515Z,1.49
2018-03-16T11:13:52.533Z,1.26
2018-03-16T11:16:21.119Z,1.25
2018-03-16T11:18:49.609Z,1.36
2018-03-16T11:21:18.200Z,1.28
2018-03-16T11:23:47.102Z,1.18
2018-03-16T11:26:15.871Z,1.14
2018-03-16T11:28:44.653Z,1.10
2018-03-16T11:31:14.184Z,1.18
2018-03-16T11:33:43.148Z,1.15
2018-03-16T11:36:11.743Z,1.15
2018-03-16T11:38:40.656Z,1.03
2018-03-16T11:41:09.130Z,1.00
2018-03-16T11:43:37.549Z,1.06
2018-03-16T11:46:06.262Z,0.90
2018-03-16T11:48:34.779Z,0.83
2018-03-16T11:51:03.317Z,0.98
2018-03-16T11:53:31.917Z,0.92
2018-03-16T11:56:02.350Z,1.21
2018-03-16T11:58:30.947Z,1.27
2018-03-16T12:00:59.688Z,1.20
2018-03-16T12:03:29.475Z,1.00
2018-03-16T12:05:57.907Z,1.20
2018-03-16T12:08:26.969Z,1.15
2018-03-16T12:10:55.374Z,1.26
2018-03-16T12:13:24.991Z,1.25
2018-03-16T12:15:53.564Z,1.40
2018-03-16T12:18:22.142Z,1.35
2018-03-16T12:20:50.847Z,1.35
2018-03-16T12:23:19.464Z,1.25
2018-03-16T12:25:47.907Z,1.61
2018-03-16T12:28:16.550Z,1.42
2018-03-16T12:30:45.589Z,1.65
2018-03-16T12:33:14.072Z,1.70
2018-03-16T12:35:42.596Z,1.36
2018-03-16T12:38:11.097Z,1.38
2018-03-16T12:40:39.502Z,1.45
2018-03-16T12:43:07.950Z,1.29
2018-03-16T12:45:37.658Z,1.29
2018-03-16T12:48:06.112Z,1.40
2018-03-16T12:50:34.621Z,1.18
2018-03-16T12:53:03.178Z,1.23
2018-03-16T12:55:31.659Z,1.13
2018-03-16T12:58:00.440Z,1.21
2018-03-16T13:00:29.737Z,1.21
2018-03-16T13:02:58.239Z,1.04
2018-03-16T13:05:26.698Z,0.97
2018-03-16T13:07:55.218Z,1.03
2018-03-16T13:10:23.689Z,1.12
2018-03-16T13:12:52.250Z,1.02
2018-03-16T13:15:20.842Z,0.96
2018-03-16T13:17:49.424Z,1.08
2018-03-16T13:20:17.995Z,1.14
2018-03-16T13:22:46.553Z,1.05
2018-03-16T13:25:15.269Z,0.94
2018-03-16T13:27:43.750Z,0.92
2018-03-16T13:30:12.367Z,0.88
2018-03-16T13:32:40.816Z,1.08
2018-03-16T13:35:09.288Z,0.99
2018-03-16T13:37:37.956Z,0.97
2018-03-16T13:40:09.927Z,1.03
2018-03-16T13:42:38.422Z,1.10
2018-03-16T13:45:06.901Z,0.85
2018-03-16T13:47:35.380Z,0.95
2018-03-16T13:50:04.010Z,1.08
2018-03-16T13:52:32.605Z,0.99
2018-03-16T13:55:01.061Z,0.90
2018-03-16T13:57:30.100Z,0.85
2018-03-16T13:59:58.608Z,0.85
2018-03-16T14:02:27.225Z,0.71
2018-03-16T14:04:55.773Z,0.68
2018-03-16T14:07:25.164Z,0.73
2018-03-16T14:09:53.663Z,0.76
2018-03-16T14:12:22.989Z,0.83
2018-03-16T14:14:51.447Z,0.88
2018-03-16T14:17:20.032Z,0.67
2018-03-16T14:19:48.791Z,0.63
2018-03-16T14:22:17.396Z,0.55
2018-03-16T14:24:45.862Z,0.45
2018-03-16T14:27:14.422Z,0.62
2018-03-16T14:29:42.948Z,0.77
2018-03-16T14:32:11.486Z,0.65
2018-03-16T14:34:39.955Z,0.62
2018-03-16T14:37:08.459Z,0.61
2018-03-16T14:39:36.880Z,0.59
2018-03-16T14:42:05.666Z,0.78
2018-03-16T14:44:34.104Z,0.67
2018-03-16T14:47:02.674Z,0.77
2018-03-16T14:49:31.788Z,0.84
2018-03-16T14:52:00.247Z,0.66
2018-03-16T14:54:28.752Z,0.65
2018-03-16T14:56:57.545Z,0.62
2018-03-16T14:59:25.985Z,0.52
2018-03-16T15:01:54.507Z,0.66
2018-03-16T15:04:22.999Z,0.59
2018-03-16T15:06:51.471Z,0.46
2018-03-16T15:09:20.062Z,0.42
2018-03-16T15:11:49.050Z,0.45
2018-03-16T15:14:17.625Z,0.46
2018-03-16T15:16:48.492Z,0.24
2018-03-16T15:19:20.219Z,0.18
2018-03-16T15:21:48.732Z,0.23
2018-03-16T15:24:17.371Z,0.16
2018-03-16T15:26:46.782Z,0.02
2018-03-16T15:29:15.365Z,0.14
2018-03-16T15:31:43.926Z,0.14
2018-03-16T15:34:13.455Z,0.10
2018-03-16T15:36:41.993Z,0.09
2018-03-16T15:39:10.391Z,0.15
2018-03-16T15:41:38.853Z,0.21
2018-03-16T15:44:07.351Z,0.10
2018-03-16T15:46:35.764Z,0.19
2018-03-16T15:49:04.340Z,0.16
2018-03-16T15:51:32.763Z,0.18
2018-03-16T15:54:01.186Z,0.10
2018-03-16T15:56:29.680Z,-0.03
2018-03-16T15:58:58.166Z,-0.05
2018-03-16T16:01:26.614Z,0.09
2018-03-16T16:03:56.705Z,-0.01
2018-03-16T16:06:25.142Z,-0.08
2018-03-16T16:08:53.694Z,-0.22
2018-03-16T16:11:22.993Z,-0.20
2018-03-16T16:13:51.468Z,-0.19
2018-03-16T16:16:19.924Z,-0.32
2018-03-16T16:18:48.588Z,-0.37
2018-03-16T16:21:17.258Z,-0.30
2018-03-16T16:23:45.961Z,-0.26
2018-03-16T16:26:15.862Z,-0.25
2018-03-16T16:28:44.375Z,-0.41
2018-03-16T16:31:12.830Z,-0.42
2018-03-16T16:33:41.811Z,-0.44
2018-03-16T16:36:10.299Z,-0.47
2018-03-16T16:38:38.762Z,-0.46
2018-03-16T16:41:07.314Z,-0.38
2018-03-16T16:43:35.762Z,-0.38
2018-03-16T16:46:04.280Z,-0.47
2018-03-16T16:48:33.314Z,-0.39
2018-03-16T16:51:01.777Z,-0.40
2018-03-16T16:53:30.397Z,-0.50
2018-03-16T16:56:00.173Z,-0.47
2018-03-16T16:58:28.674Z,-0.54
2018-03-16T17:00:58.747Z,-0.61
2018-03-16T17:03:28.002Z,-0.71
2018-03-16T17:05:56.513Z,-0.72
2018-03-16T17:08:25.813Z,-0.63
2018-03-16T17:10:55.215Z,-0.55
2018-03-16T17:13:23.662Z,-0.61
2018-03-16T17:15:52.438Z,-0.59
2018-03-16T17:18:21.111Z,-0.72
2018-03-16T17:20:49.776Z,-0.86
2018-03-16T17:23:18.249Z,-0.88
2018-03-16T17:25:46.913Z,-0.88
2018-03-16T17:28:15.468Z,-0.89
2018-03-16T17:30:43.987Z,-0.85
2018-03-16T17:33:12.598Z,-0.72
2018-03-16T17:35:41.068Z,-0.68
2018-03-16T17:38:09.602Z,-0.74
2018-03-16T17:40:38.114Z,-0.84
2018-03-16T17:43:06.582Z,-0.90
2018-03-16T17:45:35.110Z,-0.82
2018-03-16T17:48:04.270Z,-0.95
2018-03-16T17:50:32.749Z,-0.87
2018-03-16T17:53:01.273Z,-0.80
2018-03-16T17:55:29.818Z,-0.86
2018-03-16T17:57:58.289Z,-0.88
2018-03-16T18:00:26.746Z,-1.02
2018-03-16T18:02:55.298Z,-0.96
2018-03-16T18:05:23.737Z,-0.93
2018-03-16T18:07:52.177Z,-0.88
2018-03-16T18:10:20.790Z,-0.94
2018-03-16T18:12:49.250Z,-0.96
2018-03-16T18:15:17.792Z,-0.94
2018-03-16T18:17:47.045Z,-1.08
2018-03-16T18:20:15.582Z,-1.22
2018-03-16T18:22:44.106Z,-1.39
2018-03-16T18:25:12.676Z,-1.50
2018-03-16T18:27:41.131Z,-1.48
2018-03-16T18:30:09.592Z,-1.46
2018-03-16T18:32:38.984Z,-1.33
2018-03-16T18:35:07.435Z,-1.30
2018-03-16T18:37:35.860Z,-1.19
2018-03-16T18:40:04.711Z,-1.06
2018-03-16T18:42:33.295Z,-1.10
2018-03-16T18:45:01.774Z,-1.27
2018-03-16T18:47:34.610Z,-1.33
2018-03-16T18:50:07.237Z,-1.28
2018-03-16T18:52:42.694Z,-1.23
2018-03-16T18:55:22.895Z,-1.27
2018-03-16T19:00:41.651Z,-1.49
2018-03-16T19:03:10.882Z,-1.57
2018-03-16T19:05:39.388Z,-1.53
2018-03-16T19:08:07.851Z,-1.52
2018-03-16T19:10:36.785Z,-1.39
2018-03-16T19:13:05.242Z,-1.35
2018-03-16T19:15:33.742Z,-1.29
2018-03-16T19:18:02.303Z,-1.30
2018-03-16T19:20:34.162Z,-1.26
2018-03-16T19:23:04.783Z,-1.10
2018-03-16T19:25:33.472Z,-1.07
2018-03-16T19:28:11.304Z,-1.08
2018-03-16T19:30:52.387Z,-1.13
2018-03-16T19:33:24.693Z,-1.12
2018-03-16T19:35:54.272Z,-1.06
2018-03-16T19:38:22.873Z,-1.16
2018-03-16T19:40:53.831Z,-1.26
2018-03-16T19:43:22.914Z,-1.33
2018-03-16T19:45:53.458Z,-1.32
2018-03-16T19:48:29.838Z,-1.76
2018-03-16T19:50:59.199Z,-1.98
2018-03-16T19:53:28.244Z,-1.93
2018-03-16T19:56:02.871Z,-1.82
2018-03-16T19:58:36.161Z,-1.70
2018-03-16T20:01:05.193Z,-1.66
2018-03-16T20:03:33.841Z,-1.79
2018-03-16T20:06:02.570Z,-1.75
2018-03-16T20:08:31.755Z,-1.62
2018-03-16T20:11:00.224Z,-1.58
2018-03-16T20:13:28.684Z,-1.58
2018-03-16T20:15:58.120Z,-1.58
2018-03-16T20:18:27.526Z,-1.57
2018-03-16T20:20:56.519Z,-1.65
2018-03-16T20:23:25.056Z,-1.68
2018-03-16T20:25:54.357Z,-1.52
2018-03-16T20:28:35.183Z,-1.60
2018-03-16T20:31:06.014Z,-1.79
2018-03-16T20:33:35.815Z,-1.77
2018-03-16T20:36:04.978Z,-2.01
2018-03-16T20:38:33.432Z,-2.02
2018-03-16T20:41:02.641Z,-2.14
2018-03-16T20:43:31.270Z,-2.48
2018-03-16T20:46:02.650Z,-2.54
2018-03-16T20:48:31.173Z,-2.52
2018-03-16T20:50:59.660Z,-2.47
2018-03-16T20:53:28.133Z,-2.47
2018-03-16T20:55:56.733Z,-2.43
2018-03-16T20:58:25.214Z,-2.41
2018-03-16T21:00:53.691Z,-2.21
2018-03-16T21:03:23.063Z,-1.99
2018-03-16T21:05:51.700Z,-1.83
2018-03-16T21:08:23.220Z,-1.70
2018-03-16T21:10:55.090Z,-1.70
2018-03-16T21:13:23.613Z,-1.62
2018-03-16T21:15:52.385Z,-1.60
2018-03-16T21:18:21.264Z,-1.56
2018-03-16T21:20:57.818Z,-1.54
2018-03-16T21:23:32.957Z,-1.55
2018-03-16T21:26:01.839Z,-1.56
2018-03-16T21:28:30.366Z,-1.54
2018-03-16T21:30:58.907Z,-1.51
2018-03-16T21:33:27.732Z,-1.44
2018-03-16T21:35:56.236Z,-1.42
2018-03-16T21:38:24.828Z,-1.31
2018-03-16T21:40:53.478Z,-1.25
2018-03-16T21:43:22.786Z,-1.62
2018-03-16T21:45:51.602Z,-1.83
2018-03-16T21:48:20.127Z,-1.87
2018-03-16T21:50:48.808Z,-1.89
2018-03-16T21:53:17.669Z,-1.82
2018-03-16T21:55:46.188Z,-1.75
2018-03-16T21:58:14.970Z,-1.68
2018-03-16T22:00:44.673Z,-1.53
2018-03-16T22:03:13.981Z,-1.40
2018-03-16T22:05:43.007Z,-1.31
2018-03-16T22:08:12.035Z,-1.42
2018-03-16T22:10:41.184Z,-1.44
2018-03-16T22:13:10.204Z,-1.49
2018-03-16T22:15:39.864Z,-1.47
2018-03-16T22:18:08.365Z,-1.45
2018-03-16T22:20:36.795Z,-1.60
2018-03-16T22:23:08.099Z,-1.58
2018-03-16T22:25:38.043Z,-1.60
2018-03-16T22:28:06.898Z,-1.63
2018-03-16T22:30:35.674Z,-1.57
2018-03-16T22:33:08.154Z,-1.64
2018-03-16T22:35:38.561Z,-1.60
2018-03-16T22:38:09.119Z,-1.63
2018-03-16T22:40:39.128Z,-2.05
2018-03-16T22:43:07.611Z,-2.45
2018-03-16T22:45:36.065Z,-2.60
2018-03-16T22:48:06.182Z,-2.58
2018-03-16T22:50:34.653Z,-2.60
2018-03-16T22:53:03.158Z,-2.52
2018-03-16T22:55:31.745Z,-2.45
2018-03-16T22:58:00.166Z,-2.32
2018-03-16T23:00:29.531Z,-2.23
2018-03-16T23:02:58.102Z,-2.17
2018-03-16T23:05:26.564Z,-2.68
2018-03-16T23:07:55.032Z,-2.84
2018-03-16T23:10:23.528Z,-2.77
2018-03-16T23:12:52.114Z,-2.58
2018-03-16T23:15:20.560Z,-2.42
2018-03-16T23:17:49.961Z,-2.34
2018-03-16T23:20:18.420Z,-2.21
2018-03-16T23:22:46.977Z,-2.11
2018-03-16T23:25:16.790Z,-2.05
2018-03-16T23:27:45.374Z,-1.96
2018-03-16T23:30:13.948Z,-1.90
2018-03-16T23:32:43.202Z,-1.79
2018-03-16T23:35:11.964Z,-1.71
2018-03-16T23:37:40.369Z,-1.80
2018-03-16T23:40:08.838Z,-1.96
2018-03-16T23:42:37.301Z,-2.10
2018-03-16T23:45:05.719Z,-2.07
2018-03-16T23:47:34.185Z,-2.27
2018-03-16T23:50:02.594Z,-2.33
2018-03-16T23:52:31.043Z,-2.38
2018-03-16T23:54:59.773Z,-2.42
2018-03-16T23:57:28.191Z,-2.34
2018-03-16T23:59:56.648Z,-2.59
